sensor_id;sensor_type;location;lat;lon;timestamp;temperature;humidity
58513;DHT22;44302;47.914;10.642;2022-11-15T07:34:18;3.70;99.90
58513;DHT22;44302;47.914;10.642;2022-11-15T07:36:44;3.70;99.90
58513;DHT22;44302;47.914;10.642;2022-11-15T07:39:10;3.70;99.90
58513;DHT22;44302;47.914;10.642;2022-11-15T07:41:37;3.80;99.90
58513;DHT22;44302;47.914;10.642;2022-11-15T07:44:04;3.90;99.90
58513;DHT22;44302;47.914;10.642;2022-11-15T07:46:30;4.10;99.90
58513;DHT22;44302;47.914;10.642;2022-11-15T07:48:56;4.30;99.90
58513;DHT22;44302;47.914;10.642;2022-11-15T07:51:22;4.50;99.90
58513;DHT22;44302;47.914;10.642;2022-11-15T07:53:48;5.10;99.90
58513;DHT22;44302;47.914;10.642;2022-11-15T07:56:13;5.70;99.90
58513;DHT22;44302;47.914;10.642;2022-11-15T07:58:39;6.30;99.90
58513;DHT22;44302;47.914;10.642;2022-11-15T08:01:06;7.00;99.90
58513;DHT22;44302;47.914;10.642;2022-11-15T08:03:33;8.00;99.90
58513;DHT22;44302;47.914;10.642;2022-11-15T08:05:59;8.70;99.90
58513;DHT22;44302;47.914;10.642;2022-11-15T08:08:24;9.10;99.90
58513;DHT22;44302;47.914;10.642;2022-11-15T08:10:50;9.50;99.90
58513;DHT22;44302;47.914;10.642;2022-11-15T08:13:16;10.00;99.90
58513;DHT22;44302;47.914;10.642;2022-11-15T08:15:42;10.40;99.90
58513;DHT22;44302;47.914;10.642;2022-11-15T08:18:11;10.50;99.90
58513;DHT22;44302;47.914;10.642;2022-11-15T08:20:37;10.50;99.90
58513;DHT22;44302;47.914;10.642;2022-11-15T08:23:04;10.60;99.90
58513;DHT22;44302;47.914;10.642;2022-11-15T08:25:32;10.50;99.90
58513;DHT22;44302;47.914;10.642;2022-11-15T08:28:02;10.30;99.90
58513;DHT22;44302;47.914;10.642;2022-11-15T08:30:28;10.40;99.90
58513;DHT22;44302;47.914;10.642;2022-11-15T08:32:56;10.40;99.90
58513;DHT22;44302;47.914;10.642;2022-11-15T08:35:23;10.30;99.90
58513;DHT22;44302;47.914;10.642;2022-11-15T08:37:49;10.30;99.90
58513;DHT22;44302;47.914;10.642;2022-11-15T08:40:15;10.50;99.90
58513;DHT22;44302;47.914;10.642;2022-11-15T08:42:41;10.80;99.90
58513;DHT22;44302;47.914;10.642;2022-11-15T08:45:08;11.10;99.90
58513;DHT22;44302;47.914;10.642;2022-11-15T08:47:34;11.30;99.90
58513;DHT22;44302;47.914;10.642;2022-11-15T08:50:00;11.10;99.90
58513;DHT22;44302;47.914;10.642;2022-11-15T08:52:26;11.40;99.90
58513;DHT22;44302;47.914;10.642;2022-11-15T08:54:52;11.80;99.90
58513;DHT22;44302;47.914;10.642;2022-11-15T08:57:17;12.10;99.90
58513;DHT22;44302;47.914;10.642;2022-11-15T08:59:43;12.30;99.90
58513;DHT22;44302;47.914;10.642;2022-11-15T09:02:15;12.40;99.90
58513;DHT22;44302;47.914;10.642;2022-11-15T09:04:42;12.60;99.90
58513;DHT22;44302;47.914;10.642;2022-11-15T09:07:09;12.70;99.90
58513;DHT22;44302;47.914;10.642;2022-11-15T09:09:35;12.90;99.90
58513;DHT22;44302;47.914;10.642;2022-11-15T09:12:01;13.40;99.90
58513;DHT22;44302;47.914;10.642;2022-11-15T09:14:27;13.50;99.90
58513;DHT22;44302;47.914;10.642;2022-11-15T09:16:52;13.40;99.90
58513;DHT22;44302;47.914;10.642;2022-11-15T09:19:18;13.70;99.90
58513;DHT22;44302;47.914;10.642;2022-11-15T09:21:43;14.10;99.90
58513;DHT22;44302;47.914;10.642;2022-11-15T09:24:09;14.30;99.90
58513;DHT22;44302;47.914;10.642;2022-11-15T09:26:35;14.70;99.90
58513;DHT22;44302;47.914;10.642;2022-11-15T09:29:00;15.10;99.90
58513;DHT22;44302;47.914;10.642;2022-11-15T09:31:27;15.30;99.90
58513;DHT22;44302;47.914;10.642;2022-11-15T09:33:54;15.50;99.90
58513;DHT22;44302;47.914;10.642;2022-11-15T09:36:20;15.70;99.90
58513;DHT22;44302;47.914;10.642;2022-11-15T09:38:46;15.90;99.90
58513;DHT22;44302;47.914;10.642;2022-11-15T09:46:32;16.20;99.90
58513;DHT22;44302;47.914;10.642;2022-11-15T09:49:01;16.40;99.90
58513;DHT22;44302;47.914;10.642;2022-11-15T09:56:23;16.90;99.90
58513;DHT22;44302;47.914;10.642;2022-11-15T10:01:33;16.90;98.80
58513;DHT22;44302;47.914;10.642;2022-11-15T10:03:59;17.00;98.10
58513;DHT22;44302;47.914;10.642;2022-11-15T10:06:26;17.10;99.80
58513;DHT22;44302;47.914;10.642;2022-11-15T10:11:23;17.20;97.90
58513;DHT22;44302;47.914;10.642;2022-11-15T10:13:52;17.30;95.70
58513;DHT22;44302;47.914;10.642;2022-11-15T10:16:43;17.40;97.20
58513;DHT22;44302;47.914;10.642;2022-11-15T10:24:44;17.50;95.30
58513;DHT22;44302;47.914;10.642;2022-11-15T10:27:16;17.40;96.90
58513;DHT22;44302;47.914;10.642;2022-11-15T10:29:49;17.30;95.40
58513;DHT22;44302;47.914;10.642;2022-11-15T10:32:18;17.10;96.70
58513;DHT22;44302;47.914;10.642;2022-11-15T10:34:44;17.10;97.00
58513;DHT22;44302;47.914;10.642;2022-11-15T10:37:10;17.20;95.80
58513;DHT22;44302;47.914;10.642;2022-11-15T10:39:36;17.30;95.40
58513;DHT22;44302;47.914;10.642;2022-11-15T10:42:28;17.50;98.20
58513;DHT22;44302;47.914;10.642;2022-11-15T10:44:54;17.50;96.00
58513;DHT22;44302;47.914;10.642;2022-11-15T10:47:21;17.50;97.50
58513;DHT22;44302;47.914;10.642;2022-11-15T10:49:56;17.50;95.10
58513;DHT22;44302;47.914;10.642;2022-11-15T10:52:22;17.40;96.30
58513;DHT22;44302;47.914;10.642;2022-11-15T10:54:51;17.90;96.80
58513;DHT22;44302;47.914;10.642;2022-11-15T10:57:19;18.10;97.60
58513;DHT22;44302;47.914;10.642;2022-11-15T10:59:48;18.20;94.90
58513;DHT22;44302;47.914;10.642;2022-11-15T11:02:27;18.30;94.50
58513;DHT22;44302;47.914;10.642;2022-11-15T11:04:54;18.30;95.50
58513;DHT22;44302;47.914;10.642;2022-11-15T11:07:25;18.50;94.70
58513;DHT22;44302;47.914;10.642;2022-11-15T11:10:17;18.40;95.60
58513;DHT22;44302;47.914;10.642;2022-11-15T11:12:43;18.70;94.80
58513;DHT22;44302;47.914;10.642;2022-11-15T11:15:12;18.80;93.40
58513;DHT22;44302;47.914;10.642;2022-11-15T11:18:10;19.00;96.20
58513;DHT22;44302;47.914;10.642;2022-11-15T11:21:02;19.50;92.90
58513;DHT22;44302;47.914;10.642;2022-11-15T11:23:42;19.70;91.80
58513;DHT22;44302;47.914;10.642;2022-11-15T11:31:58;19.30;91.10
58513;DHT22;44302;47.914;10.642;2022-11-15T11:37:43;19.70;90.00
58513;DHT22;44302;47.914;10.642;2022-11-15T11:45:59;19.70;91.20
58513;DHT22;44302;47.914;10.642;2022-11-15T11:51:28;19.90;88.20
58513;DHT22;44302;47.914;10.642;2022-11-15T11:54:14;19.90;88.10
58513;DHT22;44302;47.914;10.642;2022-11-15T11:56:44;19.60;87.00
58513;DHT22;44302;47.914;10.642;2022-11-15T11:59:43;19.60;86.90
58513;DHT22;44302;47.914;10.642;2022-11-15T12:02:24;19.30;87.90
58513;DHT22;44302;47.914;10.642;2022-11-15T12:04:54;19.40;86.10
58513;DHT22;44302;47.914;10.642;2022-11-15T12:07:31;19.60;88.00
58513;DHT22;44302;47.914;10.642;2022-11-15T12:10:05;19.80;86.10
58513;DHT22;44302;47.914;10.642;2022-11-15T12:15:25;19.20;88.10
58513;DHT22;44302;47.914;10.642;2022-11-15T12:17:51;18.80;88.30
58513;DHT22;44302;47.914;10.642;2022-11-15T12:20:20;18.80;89.00
58513;DHT22;44302;47.914;10.642;2022-11-15T12:28:33;18.70;92.80
58513;DHT22;44302;47.914;10.642;2022-11-15T12:33:49;18.30;91.70
58513;DHT22;44302;47.914;10.642;2022-11-15T12:38:59;17.50;92.40
58513;DHT22;44302;47.914;10.642;2022-11-15T12:41:38;16.80;92.90
58513;DHT22;44302;47.914;10.642;2022-11-15T12:44:15;16.20;93.90
58513;DHT22;44302;47.914;10.642;2022-11-15T12:46:59;15.80;95.10
58513;DHT22;44302;47.914;10.642;2022-11-15T13:02:26;14.60;97.80
58513;DHT22;44302;47.914;10.642;2022-11-15T13:04:55;14.60;98.20
58513;DHT22;44302;47.914;10.642;2022-11-15T13:17:46;13.90;99.80
58513;DHT22;44302;47.914;10.642;2022-11-15T13:22:49;13.80;99.70
58513;DHT22;44302;47.914;10.642;2022-11-15T13:31:13;13.60;99.10
58513;DHT22;44302;47.914;10.642;2022-11-15T13:33:43;13.50;98.10
58513;DHT22;44302;47.914;10.642;2022-11-15T13:38:41;13.40;97.10
58513;DHT22;44302;47.914;10.642;2022-11-15T13:41:25;13.40;97.00
58513;DHT22;44302;47.914;10.642;2022-11-15T13:43:53;13.20;96.90
58513;DHT22;44302;47.914;10.642;2022-11-15T13:46:37;13.20;97.40
58513;DHT22;44302;47.914;10.642;2022-11-15T13:49:07;13.00;97.20
58513;DHT22;44302;47.914;10.642;2022-11-15T13:59:34;12.70;98.30
58513;DHT22;44302;47.914;10.642;2022-11-15T14:02:16;12.70;98.60
58513;DHT22;44302;47.914;10.642;2022-11-15T14:04:54;12.60;99.20
58513;DHT22;44302;47.914;10.642;2022-11-15T14:07:23;12.50;99.30
58513;DHT22;44302;47.914;10.642;2022-11-15T14:09:49;12.50;99.90
58513;DHT22;44302;47.914;10.642;2022-11-15T14:12:31;12.40;99.90
58513;DHT22;44302;47.914;10.642;2022-11-15T14:14:59;12.20;99.90
58513;DHT22;44302;47.914;10.642;2022-11-15T14:19:53;12.40;99.90
58513;DHT22;44302;47.914;10.642;2022-11-15T14:22:23;12.10;99.90
58513;DHT22;44302;47.914;10.642;2022-11-15T14:25:17;12.20;99.90
58513;DHT22;44302;47.914;10.642;2022-11-15T14:30:29;12.10;99.90
58513;DHT22;44302;47.914;10.642;2022-11-15T14:32:55;12.00;99.90
58513;DHT22;44302;47.914;10.642;2022-11-15T14:35:22;12.00;99.90
58513;DHT22;44302;47.914;10.642;2022-11-15T14:37:48;12.10;99.90
58513;DHT22;44302;47.914;10.642;2022-11-15T14:40:19;12.10;99.90
58513;DHT22;44302;47.914;10.642;2022-11-15T14:42:46;12.10;99.90
58513;DHT22;44302;47.914;10.642;2022-11-15T14:45:21;11.70;99.90
58513;DHT22;44302;47.914;10.642;2022-11-15T14:47:48;12.10;99.90
58513;DHT22;44302;47.914;10.642;2022-11-15T14:50:15;12.00;99.90
58513;DHT22;44302;47.914;10.642;2022-11-15T14:52:42;12.10;99.90
58513;DHT22;44302;47.914;10.642;2022-11-15T14:55:23;12.00;99.90
58513;DHT22;44302;47.914;10.642;2022-11-15T14:57:50;12.00;99.90
58513;DHT22;44302;47.914;10.642;2022-11-15T15:00:16;11.90;99.90
58513;DHT22;44302;47.914;10.642;2022-11-15T15:02:43;11.80;99.90
58513;DHT22;44302;47.914;10.642;2022-11-15T15:05:24;11.70;99.90
58513;DHT22;44302;47.914;10.642;2022-11-15T15:07:50;11.70;99.90
58513;DHT22;44302;47.914;10.642;2022-11-15T15:10:18;11.60;99.90
58513;DHT22;44302;47.914;10.642;2022-11-15T15:12:44;11.50;99.90
58513;DHT22;44302;47.914;10.642;2022-11-15T15:15:16;11.40;99.90
58513;DHT22;44302;47.914;10.642;2022-11-15T15:17:43;11.40;99.90
58513;DHT22;44302;47.914;10.642;2022-11-15T15:20:10;11.20;99.90
58513;DHT22;44302;47.914;10.642;2022-11-15T15:22:35;11.20;99.90
58513;DHT22;44302;47.914;10.642;2022-11-15T15:25:03;11.10;99.90
58513;DHT22;44302;47.914;10.642;2022-11-15T15:27:29;11.10;99.90
58513;DHT22;44302;47.914;10.642;2022-11-15T15:29:55;11.10;99.90
58513;DHT22;44302;47.914;10.642;2022-11-15T15:32:20;11.00;99.90
58513;DHT22;44302;47.914;10.642;2022-11-15T15:34:46;10.90;99.90
58513;DHT22;44302;47.914;10.642;2022-11-15T15:39:43;10.80;99.90
58513;DHT22;44302;47.914;10.642;2022-11-15T15:42:09;10.70;99.90
58513;DHT22;44302;47.914;10.642;2022-11-15T15:44:35;10.70;99.90
58513;DHT22;44302;47.914;10.642;2022-11-15T15:47:00;10.60;99.90
58513;DHT22;44302;47.914;10.642;2022-11-15T15:49:26;10.60;99.90
58513;DHT22;44302;47.914;10.642;2022-11-15T15:51:51;10.50;99.90
58513;DHT22;44302;47.914;10.642;2022-11-15T15:54:17;10.50;99.90
58513;DHT22;44302;47.914;10.642;2022-11-15T15:56:43;10.50;99.90
58513;DHT22;44302;47.914;10.642;2022-11-15T15:59:09;10.40;99.90
58513;DHT22;44302;47.914;10.642;2022-11-15T16:01:34;10.40;99.90
58513;DHT22;44302;47.914;10.642;2022-11-15T16:04:00;10.40;99.90
58513;DHT22;44302;47.914;10.642;2022-11-15T16:09:02;10.30;99.90
58513;DHT22;44302;47.914;10.642;2022-11-15T16:11:28;10.30;99.90
58513;DHT22;44302;47.914;10.642;2022-11-15T16:13:54;10.10;99.90
58513;DHT22;44302;47.914;10.642;2022-11-15T16:16:21;10.10;99.90
58513;DHT22;44302;47.914;10.642;2022-11-15T16:18:47;10.00;99.90
58513;DHT22;44302;47.914;10.642;2022-11-15T16:21:12;10.00;99.90
58513;DHT22;44302;47.914;10.642;2022-11-15T16:23:38;10.00;99.90
58513;DHT22;44302;47.914;10.642;2022-11-15T16:26:23;10.00;99.90
58513;DHT22;44302;47.914;10.642;2022-11-15T16:28:50;9.90;99.90
58513;DHT22;44302;47.914;10.642;2022-11-15T16:31:16;9.90;99.90
58513;DHT22;44302;47.914;10.642;2022-11-15T16:33:44;9.90;99.90
58513;DHT22;44302;47.914;10.642;2022-11-15T16:38:46;9.80;99.90
58513;DHT22;44302;47.914;10.642;2022-11-15T16:41:12;9.70;99.90
58513;DHT22;44302;47.914;10.642;2022-11-15T16:43:38;9.70;99.90
58513;DHT22;44302;47.914;10.642;2022-11-15T16:46:08;9.70;99.90
58513;DHT22;44302;47.914;10.642;2022-11-15T16:48:37;9.70;99.90
58513;DHT22;44302;47.914;10.642;2022-11-15T16:51:04;9.60;99.90
58513;DHT22;44302;47.914;10.642;2022-11-15T16:53:30;9.60;99.90
58513;DHT22;44302;47.914;10.642;2022-11-15T16:55:56;9.60;99.90
58513;DHT22;44302;47.914;10.642;2022-11-15T16:58:22;9.50;99.90
58513;DHT22;44302;47.914;10.642;2022-11-15T17:00:52;9.50;99.90
58513;DHT22;44302;47.914;10.642;2022-11-15T17:03:18;9.50;99.90
58513;DHT22;44302;47.914;10.642;2022-11-15T17:05:44;9.40;99.90
58513;DHT22;44302;47.914;10.642;2022-11-15T17:08:10;9.40;99.90
58513;DHT22;44302;47.914;10.642;2022-11-15T17:10:38;9.40;99.90
58513;DHT22;44302;47.914;10.642;2022-11-15T17:13:05;9.40;99.90
58513;DHT22;44302;47.914;10.642;2022-11-15T17:15:31;9.40;99.90
58513;DHT22;44302;47.914;10.642;2022-11-15T17:17:57;9.40;99.90
58513;DHT22;44302;47.914;10.642;2022-11-15T17:20:23;9.30;99.90
58513;DHT22;44302;47.914;10.642;2022-11-15T17:22:50;9.40;99.90
58513;DHT22;44302;47.914;10.642;2022-11-15T17:25:17;9.30;99.90
58513;DHT22;44302;47.914;10.642;2022-11-15T17:27:43;9.30;99.90
58513;DHT22;44302;47.914;10.642;2022-11-15T17:30:11;9.30;99.90
58513;DHT22;44302;47.914;10.642;2022-11-15T17:32:39;9.20;99.90
58513;DHT22;44302;47.914;10.642;2022-11-15T17:35:05;9.20;99.90
58513;DHT22;44302;47.914;10.642;2022-11-15T17:37:32;9.20;99.90
58513;DHT22;44302;47.914;10.642;2022-11-15T17:39:57;9.20;99.90
58513;DHT22;44302;47.914;10.642;2022-11-15T17:42:23;9.30;99.90
58513;DHT22;44302;47.914;10.642;2022-11-15T17:44:49;9.20;99.90
58513;DHT22;44302;47.914;10.642;2022-11-15T17:47:14;9.20;99.90
58513;DHT22;44302;47.914;10.642;2022-11-15T17:49:40;9.20;99.90
58513;DHT22;44302;47.914;10.642;2022-11-15T17:52:06;9.10;99.90
58513;DHT22;44302;47.914;10.642;2022-11-15T17:54:32;9.10;99.90
58513;DHT22;44302;47.914;10.642;2022-11-15T17:56:58;9.00;99.90
58513;DHT22;44302;47.914;10.642;2022-11-15T17:59:23;9.10;99.90
58513;DHT22;44302;47.914;10.642;2022-11-15T18:01:50;9.00;99.90
58513;DHT22;44302;47.914;10.642;2022-11-15T18:04:16;9.00;99.90
58513;DHT22;44302;47.914;10.642;2022-11-15T18:06:42;9.00;99.90
58513;DHT22;44302;47.914;10.642;2022-11-15T18:09:07;9.00;99.90
58513;DHT22;44302;47.914;10.642;2022-11-15T18:11:38;9.00;99.90
58513;DHT22;44302;47.914;10.642;2022-11-15T18:14:08;9.00;99.90
58513;DHT22;44302;47.914;10.642;2022-11-15T18:16:36;9.00;99.90
58513;DHT22;44302;47.914;10.642;2022-11-15T18:19:03;9.00;99.90
58513;DHT22;44302;47.914;10.642;2022-11-15T18:21:36;9.00;99.90
58513;DHT22;44302;47.914;10.642;2022-11-15T18:24:22;9.00;99.90
58513;DHT22;44302;47.914;10.642;2022-11-15T18:26:48;9.00;99.90
58513;DHT22;44302;47.914;10.642;2022-11-15T18:29:13;9.00;99.90
58513;DHT22;44302;47.914;10.642;2022-11-15T18:31:39;9.00;99.90
58513;DHT22;44302;47.914;10.642;2022-11-15T18:34:05;9.00;99.90
58513;DHT22;44302;47.914;10.642;2022-11-15T18:36:31;8.90;99.90
58513;DHT22;44302;47.914;10.642;2022-11-15T18:38:59;8.90;99.90
58513;DHT22;44302;47.914;10.642;2022-11-15T18:41:26;8.90;99.90
58513;DHT22;44302;47.914;10.642;2022-11-15T18:43:54;8.90;99.90
58513;DHT22;44302;47.914;10.642;2022-11-15T18:46:22;8.90;99.90
58513;DHT22;44302;47.914;10.642;2022-11-15T18:48:49;8.90;99.90
58513;DHT22;44302;47.914;10.642;2022-11-15T18:51:17;8.90;99.90
58513;DHT22;44302;47.914;10.642;2022-11-15T18:53:44;8.90;99.90
58513;DHT22;44302;47.914;10.642;2022-11-15T18:56:16;8.90;99.90
58513;DHT22;44302;47.914;10.642;2022-11-15T18:58:43;8.90;99.90
58513;DHT22;44302;47.914;10.642;2022-11-15T19:01:12;8.90;99.90
58513;DHT22;44302;47.914;10.642;2022-11-15T19:03:40;8.90;99.90
58513;DHT22;44302;47.914;10.642;2022-11-15T19:06:08;8.90;99.90
58513;DHT22;44302;47.914;10.642;2022-11-15T19:08:35;8.80;99.90
58513;DHT22;44302;47.914;10.642;2022-11-15T19:11:09;8.80;99.90
58513;DHT22;44302;47.914;10.642;2022-11-15T19:13:35;8.70;99.90
58513;DHT22;44302;47.914;10.642;2022-11-15T19:16:02;8.70;99.90
58513;DHT22;44302;47.914;10.642;2022-11-15T19:18:29;8.70;99.90
58513;DHT22;44302;47.914;10.642;2022-11-15T19:20:55;8.60;99.90
58513;DHT22;44302;47.914;10.642;2022-11-15T19:23:22;8.60;99.90
58513;DHT22;44302;47.914;10.642;2022-11-15T19:25:59;8.50;99.90
58513;DHT22;44302;47.914;10.642;2022-11-15T19:28:26;8.60;99.90
58513;DHT22;44302;47.914;10.642;2022-11-15T19:30:52;8.50;99.90
58513;DHT22;44302;47.914;10.642;2022-11-15T19:33:18;8.50;99.90
58513;DHT22;44302;47.914;10.642;2022-11-15T19:35:46;8.50;99.90
58513;DHT22;44302;47.914;10.642;2022-11-15T19:38:12;8.50;99.90
58513;DHT22;44302;47.914;10.642;2022-11-15T19:40:39;8.50;99.90
58513;DHT22;44302;47.914;10.642;2022-11-15T19:43:04;8.50;99.90
58513;DHT22;44302;47.914;10.642;2022-11-15T19:45:30;8.50;99.90
58513;DHT22;44302;47.914;10.642;2022-11-15T19:47:57;8.50;99.90
58513;DHT22;44302;47.914;10.642;2022-11-15T19:50:23;8.50;99.90
58513;DHT22;44302;47.914;10.642;2022-11-15T19:52:49;8.50;99.90
58513;DHT22;44302;47.914;10.642;2022-11-15T19:55:14;8.50;99.90
58513;DHT22;44302;47.914;10.642;2022-11-15T19:57:40;8.50;99.90
58513;DHT22;44302;47.914;10.642;2022-11-15T20:00:06;8.50;99.90
58513;DHT22;44302;47.914;10.642;2022-11-15T20:02:32;8.50;99.90
58513;DHT22;44302;47.914;10.642;2022-11-15T20:04:58;8.50;99.90
58513;DHT22;44302;47.914;10.642;2022-11-15T20:07:23;8.50;99.90
58513;DHT22;44302;47.914;10.642;2022-11-15T20:09:49;8.50;99.90
58513;DHT22;44302;47.914;10.642;2022-11-15T20:12:15;8.50;99.90
58513;DHT22;44302;47.914;10.642;2022-11-15T20:14:41;8.40;99.90
58513;DHT22;44302;47.914;10.642;2022-11-15T20:17:06;8.40;99.90
58513;DHT22;44302;47.914;10.642;2022-11-15T20:19:32;8.40;99.90
58513;DHT22;44302;47.914;10.642;2022-11-15T20:21:58;8.40;99.90
58513;DHT22;44302;47.914;10.642;2022-11-15T20:24:23;8.30;99.90
58513;DHT22;44302;47.914;10.642;2022-11-15T20:26:49;8.40;99.90
58513;DHT22;44302;47.914;10.642;2022-11-15T20:29:15;8.40;99.90
58513;DHT22;44302;47.914;10.642;2022-11-15T20:31:40;8.30;99.90
58513;DHT22;44302;47.914;10.642;2022-11-15T20:34:08;8.40;99.90
58513;DHT22;44302;47.914;10.642;2022-11-15T20:36:33;8.40;99.90
58513;DHT22;44302;47.914;10.642;2022-11-15T20:38:59;8.40;99.90
58513;DHT22;44302;47.914;10.642;2022-11-15T20:41:26;8.40;99.90
58513;DHT22;44302;47.914;10.642;2022-11-15T20:43:51;8.40;99.90
58513;DHT22;44302;47.914;10.642;2022-11-15T20:46:17;8.40;99.90
